Time;durP1;ratioP1;P1;durP2;ratioP2;P2;SDS_P1;SDS_P2;PMS_P1;PMS_P2;Temp;Humidity;BMP_temperature;BMP_pressure;BME280_temperature;BME280_humidity;BME280_pressure;Samples;Min_cycle;Max_cycle;Signal;HPM_P1;HPM_P2
2022/02/13 00:01:25;;;;;;;;;34.67;27.33;;;;;1.33;86.60;103114.97;5074644;28;11550;-75
2022/02/13 00:04:21;;;;;;;;;36.00;35.67;;;;;1.22;86.02;103127.31;5076719;28;11565;-75
2022/02/13 00:07:17;;;;;;;;;34.67;32.00;;;;;1.27;87.40;103113.91;5073606;28;11661;-75
2022/02/13 00:10:14;;;;;;;;;36.25;36.25;;;;;1.27;86.83;103129.44;5089582;28;12288;-75
2022/02/13 00:13:01;;;;;;;;;32.00;30.25;;;;;1.24;86.73;103127.97;5095475;28;11560;-76
2022/02/13 00:15:31;;;;;;;;;20.00;20.00;;;;;1.19;87.04;103133.22;5095683;28;12305;-76
2022/02/13 00:18:26;;;;;;;;;44.67;29.67;;;;;1.21;87.30;103136.56;5095424;28;11543;-75
2022/02/13 00:21:16;;;;;;;;;43.00;38.33;;;;;1.24;87.50;103141.63;5095032;28;11545;-75
2022/02/13 00:23:59;;;;;;;;;37.00;35.33;;;;;1.09;87.23;103141.81;5094978;28;11586;-76
2022/02/13 00:26:54;;;;;;;;;35.00;35.00;;;;;1.07;87.83;103152.09;5093457;28;11748;-76
2022/02/13 00:29:50;;;;;;;;;30.00;30.00;;;;;1.00;88.46;103155.84;5094049;28;8852;-75
2022/02/13 00:32:46;;;;;;;;;37.33;33.33;;;;;1.00;88.29;103153.97;5093433;28;11544;-75
2022/02/13 00:35:42;;;;;;;;;37.67;35.33;;;;;1.05;88.44;103159.59;5096449;27;8825;-76
2022/02/13 00:38:37;;;;;;;;;55.00;39.67;;;;;1.01;87.86;103155.63;5093344;28;8893;-76
2022/02/13 00:41:34;;;;;;;;;39.67;36.00;;;;;0.88;88.09;103157.47;5094019;28;11650;-75
2022/02/13 00:44:02;;;;;;;;;35.33;34.33;;;;;0.92;88.27;103164.19;5095018;28;11540;-76
2022/02/13 00:46:43;;;;;;;;;30.67;30.33;;;;;0.93;88.10;103161.28;5093899;28;11573;-76
2022/02/13 00:49:39;;;;;;;;;43.67;43.00;;;;;1.03;88.95;103161.72;5094530;28;12388;-75
2022/02/13 00:52:35;;;;;;;;;35.33;31.00;;;;;1.03;88.85;103160.88;5093409;28;8837;-75
2022/02/13 00:55:30;;;;;;;;;38.33;33.00;;;;;1.04;89.09;103155.22;5094479;28;11584;-75
2022/02/13 00:58:28;;;;;;;;;33.33;27.33;;;;;0.84;88.62;103159.75;5094876;28;11573;-76
2022/02/13 01:01:24;;;;;;;;;27.33;27.33;;;;;0.83;88.65;103158.09;5094146;28;11560;-75
2022/02/13 01:04:19;;;;;;;;;27.33;25.33;;;;;0.80;89.52;103161.22;5094003;28;12328;-76
2022/02/13 01:07:15;;;;;;;;;23.67;23.00;;;;;0.68;88.95;103154.69;5092577;28;11677;-76
2022/02/13 01:09:56;;;;;;;;;23.33;23.33;;;;;0.63;89.86;103151.75;5092800;28;11575;-75
2022/02/13 01:12:52;;;;;;;;;25.33;25.33;;;;;0.51;90.12;103151.50;5073834;28;11529;-75
2022/02/13 01:15:21;;;;;;;;;22.00;22.00;;;;;0.54;89.58;103154.66;5074081;28;11573;-75
2022/02/13 01:18:17;;;;;;;;;20.67;20.67;;;;;0.48;89.36;103160.09;5074044;28;12209;-75
2022/02/13 01:20:44;;;;;;;;;21.33;21.33;;;;;0.44;89.39;103166.97;5080900;28;11553;-75
2022/02/13 01:23:25;;;;;;;;;22.33;22.33;;;;;0.28;90.00;103173.59;5093432;28;11674;-75
2022/02/13 01:26:23;;;;;;;;;20.33;20.33;;;;;0.28;89.78;103179.03;5091055;28;8853;-76
2022/02/13 01:29:18;;;;;;;;;22.00;22.00;;;;;0.27;90.15;103175.47;5081386;28;11558;-75
2022/02/13 01:32:14;;;;;;;;;25.33;24.33;;;;;0.23;90.12;103181.50;5094982;27;8841;-76
2022/02/13 01:35:10;;;;;;;;;19.67;19.67;;;;;0.15;90.32;103185.25;5093418;28;8849;-75
2022/02/13 01:37:46;;;;;;;;;28.33;27.00;;;;;0.17;90.78;103183.19;5092683;28;8979;-75
2022/02/13 01:40:42;;;;;;;;;28.33;25.00;;;;;0.07;91.31;103196.28;5093459;28;8895;-75
2022/02/13 01:43:40;;;;;;;;;30.67;28.67;;;;;0.07;91.08;103193.56;5094477;28;8951;-76
2022/02/13 01:46:37;;;;;;;;;44.33;44.00;;;;;0.17;92.07;103191.34;5093521;28;8860;-75
2022/02/13 01:49:19;;;;;;;;;25.67;25.67;;;;;0.03;91.46;103194.19;5093250;28;9562;-75
2022/02/13 01:52:15;;;;;;;;;41.00;36.33;;;;;0.13;91.91;103194.66;5093490;28;8856;-75
2022/02/13 01:55:11;;;;;;;;;40.33;39.00;;;;;0.12;91.48;103199.25;5093374;28;8841;-75
2022/02/13 01:58:07;;;;;;;;;49.00;45.00;;;;;0.09;91.54;103202.41;5093531;28;8869;-75
2022/02/13 02:01:02;;;;;;;;;39.00;36.00;;;;;0.06;91.52;103213.66;5094881;27;8842;-75
2022/02/13 02:03:59;;;;;;;;;51.67;43.67;;;;;0.08;91.48;103222.50;5093010;28;8839;-76
2022/02/13 02:06:54;;;;;;;;;42.67;42.00;;;;;-0.02;91.36;103220.09;5093334;28;8841;-75
2022/02/13 02:09:52;;;;;;;;;58.67;52.00;;;;;0.03;90.90;103222.22;5093009;28;8864;-76
2022/02/13 02:12:48;;;;;;;;;52.33;47.33;;;;;0.07;90.97;103225.38;5104495;28;8869;-76
2022/02/13 02:15:43;;;;;;;;;43.00;42.67;;;;;0.01;91.42;103218.03;5093226;28;8841;-76
2022/02/13 02:18:39;;;;;;;;;58.67;53.00;;;;;0.03;91.25;103221.41;5093196;28;8875;-75
2022/02/13 02:21:36;;;;;;;;;52.00;48.33;;;;;-0.09;91.79;103229.25;5092741;28;8925;-76
2022/02/13 02:24:32;;;;;;;;;52.00;47.33;;;;;0.04;91.61;103225.78;5093145;28;8845;-75
2022/02/13 02:27:28;;;;;;;;;63.67;52.00;;;;;0.03;91.35;103232.28;5091182;28;8861;-75
2022/02/13 02:30:23;;;;;;;;;74.33;57.00;;;;;-0.09;91.39;103229.25;5092865;28;8857;-75
2022/02/13 02:33:19;;;;;;;;;66.33;54.67;;;;;-0.08;91.50;103239.97;5072534;28;8878;-76
2022/02/13 02:36:16;;;;;;;;;76.67;61.67;;;;;0.14;90.90;103237.16;5074319;28;8867;-74
2022/02/13 02:39:12;;;;;;;;;69.67;59.33;;;;;-0.01;91.51;103238.09;5088293;28;8951;-75
2022/02/13 02:42:11;;;;;;;;;72.67;60.00;;;;;-0.17;91.67;103240.28;5092820;28;8872;-75
2022/02/13 02:45:13;;;;;;;;;76.33;60.33;;;;;-0.22;92.35;103242.78;5092862;28;8892;-75
2022/02/13 02:47:42;;;;;;;;;78.33;64.33;;;;;-0.27;91.49;103246.06;5093431;28;9589;-75
2022/02/13 02:50:38;;;;;;;;;82.00;67.00;;;;;-0.26;91.67;103253.19;5094714;28;9751;-75
2022/02/13 02:53:34;;;;;;;;;75.00;60.00;;;;;-0.31;91.48;103247.47;5078236;28;9576;-75
2022/02/13 02:56:02;;;;;;;;;72.67;59.67;;;;;-0.34;91.38;103256.03;5076703;28;8858;-75
2022/02/13 02:58:58;;;;;;;;;75.33;58.00;;;;;-0.46;91.61;103252.16;5077256;28;8840;-75
2022/02/13 03:01:54;;;;;;;;;70.00;54.00;;;;;-0.58;92.65;103258.13;5086694;28;8845;-75
2022/02/13 03:04:49;;;;;;;;;68.67;58.33;;;;;-0.59;92.13;103264.59;5095418;28;8838;-75
2022/02/13 03:07:45;;;;;;;;;66.00;49.67;;;;;-0.50;91.75;103261.75;5096889;28;8837;-76
2022/02/13 03:10:41;;;;;;;;;44.00;42.33;;;;;-0.51;91.88;103263.63;5094716;28;8845;-75
2022/02/13 03:13:41;;;;;;;;;44.00;35.67;;;;;-0.56;92.27;103260.63;5096498;28;8838;-75
2022/02/13 03:16:37;;;;;;;;;27.00;27.00;;;;;-0.44;92.40;103261.81;5095303;28;8960;-75
2022/02/13 03:19:34;;;;;;;;;31.00;31.00;;;;;-0.46;92.01;103258.47;5081957;28;8932;-75
2022/02/13 03:22:30;;;;;;;;;25.33;25.33;;;;;-0.59;91.49;103258.31;5094958;28;8854;-75
2022/02/13 03:25:26;;;;;;;;;24.67;24.67;;;;;-0.68;91.68;103270.34;5078624;28;9629;-75
2022/02/13 03:28:22;;;;;;;;;22.67;22.67;;;;;-0.64;92.15;103267.03;5075075;28;8874;-75
2022/02/13 03:31:17;;;;;;;;;21.33;21.33;;;;;-0.71;92.58;103270.72;5082461;28;9508;-75
2022/02/13 03:33:58;;;;;;;;;21.67;21.00;;;;;-0.59;93.00;103270.03;5095499;28;8979;-74
2022/02/13 03:36:54;;;;;;;;;24.00;22.67;;;;;-0.62;92.66;103278.56;5096121;28;9576;-75
2022/02/13 03:39:50;;;;;;;;;23.33;23.33;;;;;-0.60;92.56;103290.09;5081568;28;8864;-75
2022/02/13 03:42:46;;;;;;;;;24.67;22.33;;;;;-0.83;93.08;103269.56;5081769;28;8831;-75
2022/02/13 03:45:41;;;;;;;;;27.33;26.00;;;;;-0.86;93.25;103277.03;5094957;28;8824;-74
2022/02/13 03:48:09;;;;;;;;;33.00;33.00;;;;;-0.85;92.79;103277.88;5112094;28;8924;-75
2022/02/13 03:50:58;;;;;;;;;26.33;26.33;;;;;-0.91;92.79;103278.69;5088798;28;8845;-75
2022/02/13 03:53:54;;;;;;;;;28.33;26.33;;;;;-0.80;92.80;103278.16;5101732;28;8930;-75
2022/02/13 03:56:50;;;;;;;;;27.00;27.00;;;;;-0.96;92.93;103284.66;5115529;28;8853;-75
2022/02/13 03:59:18;;;;;;;;;22.00;19.33;;;;;-0.85;93.92;103286.03;5116716;28;8849;-75
2022/02/13 04:01:45;;;;;;;;;32.33;31.00;;;;;-0.88;93.45;103283.72;5115533;28;8934;-75
2022/02/13 04:04:13;;;;;;;;;28.00;27.33;;;;;-0.90;93.39;103296.66;5116527;28;9518;-75
2022/02/13 04:07:09;;;;;;;;;27.67;27.67;;;;;-1.01;92.89;103284.38;5115686;28;8833;-75
2022/02/13 04:09:58;;;;;;;;;33.33;28.67;;;;;-1.01;92.87;103286.25;5116292;28;8845;-75
2022/02/13 04:12:54;;;;;;;;;39.67;30.67;;;;;-1.08;92.59;103285.34;5094823;28;8839;-76
2022/02/13 04:15:50;;;;;;;;;23.00;20.67;;;;;-1.12;92.40;103293.03;5094425;28;8823;-76
2022/02/13 04:18:45;;;;;;;;;35.67;35.67;;;;;-1.21;92.55;103297.72;5095502;28;8889;-76
2022/02/13 04:21:41;;;;;;;;;36.33;33.33;;;;;-1.22;93.41;103297.94;5110183;28;8851;-76
2022/02/13 04:24:37;;;;;;;;;36.67;32.33;;;;;-1.22;93.39;103298.78;5094451;28;8824;-76
2022/02/13 04:27:34;;;;;;;;;35.33;33.67;;;;;-1.38;93.69;103295.38;5094274;28;8844;-76
2022/02/13 04:30:31;;;;;;;;;29.67;29.67;;;;;-1.37;93.46;103308.78;5107675;28;8837;-76
2022/02/13 04:33:26;;;;;;;;;24.33;22.33;;;;;-1.49;93.79;103305.69;5114764;28;8855;-76
2022/02/13 04:36:22;;;;;;;;;41.67;39.33;;;;;-1.45;93.74;103307.03;5115412;28;8825;-75
2022/02/13 04:39:18;;;;;;;;;39.33;39.33;;;;;-1.50;93.62;103304.00;5114314;28;9000;-76
2022/02/13 04:42:14;;;;;;;;;36.67;33.33;;;;;-1.36;93.39;103298.78;5114676;28;8878;-75
2022/02/13 04:45:09;;;;;;;;;35.00;31.33;;;;;-1.48;93.58;103298.38;5114252;28;8852;-76
2022/02/13 04:48:06;;;;;;;;;33.00;32.33;;;;;-1.53;93.67;103298.13;5114116;28;8963;-76
2022/02/13 04:50:48;;;;;;;;;35.33;32.67;;;;;-1.43;93.49;103301.41;5114112;28;8930;-76
2022/02/13 04:53:18;;;;;;;;;34.67;31.33;;;;;-1.42;93.19;103312.06;5097421;28;8844;-76
2022/02/13 04:56:14;;;;;;;;;30.67;30.33;;;;;-1.40;93.23;103312.72;5114252;28;8832;-76
2022/02/13 04:59:10;;;;;;;;;32.33;32.33;;;;;-1.42;93.29;103324.78;5114413;28;8962;-76
2022/02/13 05:02:06;;;;;;;;;29.00;29.00;;;;;-1.53;93.90;103328.81;5093834;28;8819;-76
2022/02/13 05:05:03;;;;;;;;;28.67;25.67;;;;;-1.56;95.17;103317.47;5080142;28;8831;-76
2022/02/13 05:07:58;;;;;;;;;27.67;26.00;;;;;-1.58;94.42;103330.41;5092353;28;8990;-76
2022/02/13 05:10:54;;;;;;;;;27.67;23.33;;;;;-1.51;94.54;103337.63;5106097;28;8943;-76
2022/02/13 05:13:50;;;;;;;;;28.00;25.67;;;;;-1.50;94.53;103336.59;5113955;28;8821;-76
2022/02/13 05:16:45;;;;;;;;;31.00;30.00;;;;;-1.34;94.76;103335.56;5110095;28;8890;-76
2022/02/13 05:19:41;;;;;;;;;30.67;30.67;;;;;-1.36;94.35;103336.78;5096936;28;8853;-75
2022/02/13 05:22:09;;;;;;;;;25.33;23.67;;;;;-1.32;93.67;103333.50;5114877;28;8832;-76
2022/02/13 05:25:04;;;;;;;;;27.67;27.00;;;;;-1.25;93.74;103333.59;5113433;28;8852;-76
2022/02/13 05:27:49;;;;;;;;;19.00;19.00;;;;;-1.28;94.01;103350.28;5114465;28;8854;-76
2022/02/13 05:30:45;;;;;;;;;32.33;27.33;;;;;-1.25;94.10;103347.16;5112745;28;8840;-76
2022/02/13 05:33:41;;;;;;;;;33.00;32.67;;;;;-1.19;94.60;103351.84;5113205;28;9646;-77
2022/02/13 05:36:36;;;;;;;;;30.33;28.67;;;;;-1.16;94.99;103343.31;5096936;28;8837;-76
2022/02/13 05:39:32;;;;;;;;;28.00;28.00;;;;;-1.05;94.89;103364.59;5115377;27;8848;-76
2022/02/13 05:42:28;;;;;;;;;24.33;24.33;;;;;-0.96;94.74;103358.03;5113225;28;8844;-75
2022/02/13 05:45:24;;;;;;;;;31.67;27.33;;;;;-0.90;94.83;103356.44;5099479;28;8844;-76
2022/02/13 05:48:20;;;;;;;;;21.33;21.33;;;;;-0.66;94.71;103369.69;5113406;28;8836;-77
2022/02/13 05:51:16;;;;;;;;;23.67;22.00;;;;;-0.57;94.54;103362.25;5113078;28;8909;-75
2022/02/13 05:54:11;;;;;;;;;29.33;27.33;;;;;-0.50;94.81;103360.47;5113187;28;8913;-76
2022/02/13 05:57:07;;;;;;;;;30.67;28.33;;;;;-0.46;94.90;103363.63;5112908;28;8833;-75
2022/02/13 05:59:35;;;;;;;;;40.67;35.33;;;;;-0.47;94.84;103362.78;5112991;28;8853;-75
2022/02/13 06:02:31;;;;;;;;;31.33;26.67;;;;;-0.48;95.17;103355.69;5097117;28;8851;-76
2022/02/13 06:05:27;;;;;;;;;25.33;22.67;;;;;-0.47;95.09;103365.50;5112779;28;9015;-75
2022/02/13 06:08:23;;;;;;;;;21.00;21.00;;;;;-0.28;94.71;103364.06;5112351;28;8844;-75
2022/02/13 06:11:20;;;;;;;;;20.33;19.67;;;;;-0.13;93.84;103373.00;5105162;28;8849;-75
2022/02/13 06:14:16;;;;;;;;;26.33;24.67;;;;;-0.08;94.21;103369.69;5112799;28;8849;-75
2022/02/13 06:17:11;;;;;;;;;22.00;22.00;;;;;0.06;94.72;103359.78;5112552;28;8890;-75
2022/02/13 06:20:08;;;;;;;;;21.00;21.00;;;;;0.20;94.13;103356.13;5112596;28;8841;-76
2022/02/13 06:22:35;;;;;;;;;25.00;24.67;;;;;0.20;93.89;103362.41;5112855;28;8860;-76
2022/02/13 06:25:20;;;;;;;;;24.33;24.33;;;;;0.25;93.37;103364.56;5112977;28;8829;-74
2022/02/13 06:28:08;;;;;;;;;31.67;28.67;;;;;0.33;93.30;103371.75;5112933;28;8854;-76
2022/02/13 06:31:04;;;;;;;;;33.00;29.33;;;;;0.50;94.04;103375.84;5112003;28;8880;-77
2022/02/13 06:33:59;;;;;;;;;28.00;25.67;;;;;0.67;92.42;103384.56;5113731;28;8877;-77
2022/02/13 06:36:40;;;;;;;;;30.00;28.00;;;;;0.75;91.73;103390.69;5113023;28;8926;-77
2022/02/13 06:39:36;;;;;;;;;19.67;19.67;;;;;0.82;91.68;103377.94;5111970;28;8840;-77
2022/02/13 06:42:05;;;;;;;;;38.67;38.33;;;;;0.92;91.84;103379.47;5113030;28;11558;-78
2022/02/13 06:44:32;;;;;;;;;67.33;55.00;;;;;1.05;91.40;103382.28;5113650;28;11644;-77
2022/02/13 06:47:28;;;;;;;;;69.67;56.67;;;;;1.20;90.47;103382.97;5112526;28;8864;-77
2022/02/13 06:50:24;;;;;;;;;56.33;48.00;;;;;1.28;89.83;103384.69;5112246;28;8837;-76
2022/02/13 06:53:22;;;;;;;;;48.00;44.00;;;;;1.32;89.59;103381.38;5078858;28;8823;-76
2022/02/13 06:56:18;;;;;;;;;48.33;45.33;;;;;1.38;89.71;103382.41;5112359;28;8837;-77
2022/02/13 06:59:15;;;;;;;;;33.67;33.33;;;;;1.49;89.66;103387.31;5112285;28;8909;-78
2022/02/13 07:02:11;;;;;;;;;39.33;37.33;;;;;1.71;87.39;103388.00;5098137;28;11597;-78
2022/02/13 07:05:07;;;;;;;;;40.00;40.00;;;;;1.72;86.42;103386.13;5112406;28;11576;-78
2022/02/13 07:08:03;;;;;;;;;34.50;34.50;;;;;1.83;86.94;103386.34;5112074;28;11532;-78
2022/02/13 07:10:31;;;;;;;;;40.67;35.33;;;;;1.88;85.46;103385.72;5112742;28;11569;-77
2022/02/13 07:13:27;;;;;;;;;32.50;32.50;;;;;1.82;85.11;103387.38;5112025;28;11519;-76
2022/02/13 07:16:23;;;;;;;;;34.50;32.75;;;;;1.79;86.79;103389.69;5112017;28;12363;-77
2022/02/13 07:19:18;;;;;;;;;31.00;29.50;;;;;1.84;86.64;103382.59;5111645;28;11704;-76
2022/02/13 07:22:14;;;;;;;;;91.00;70.33;;;;;2.01;86.56;103385.75;5111299;28;11671;-76
2022/02/13 07:25:09;;;;;;;;;95.33;73.67;;;;;1.91;86.39;103390.75;5111873;28;8859;-77
2022/02/13 07:31:19;;;;;;;;;29.00;29.00;;;;;2.40;84.48;103384.94;5091539;28;12258;-75
2022/02/13 07:34:15;;;;;;;;;29.75;29.25;;;;;2.38;84.72;103381.59;5091278;28;11492;-77
2022/02/13 07:37:10;;;;;;;;;40.75;39.50;;;;;2.66;82.39;103384.06;5094061;28;12267;-76
2022/02/13 07:40:07;;;;;;;;;39.50;35.50;;;;;2.74;81.46;103383.84;5095155;28;11568;-76
2022/02/13 07:43:04;;;;;;;;;39.00;36.75;;;;;2.51;81.78;103388.91;5114879;28;12331;-76
2022/02/13 07:46:00;;;;;;;;;41.00;41.00;;;;;2.75;81.82;103390.16;5108913;28;11550;-76
2022/02/13 07:48:55;;;;;;;;;34.00;32.25;;;;;2.86;80.91;103389.50;5081802;28;11647;-75
2022/02/13 07:51:51;;;;;;;;;42.25;40.50;;;;;2.96;81.46;103389.06;5107892;28;11555;-77
2022/02/13 07:54:47;;;;;;;;;33.25;33.25;;;;;3.23;80.40;103389.84;5114537;28;11529;-76
2022/02/13 07:57:42;;;;;;;;;54.25;48.00;;;;;3.13;79.96;103387.53;5096167;28;11507;-76
2022/02/13 08:00:38;;;;;;;;;54.75;48.50;;;;;3.20;79.92;103387.50;5114816;28;11677;-76
2022/02/13 08:03:37;;;;;;;;;46.25;42.25;;;;;3.13;79.60;103381.22;5094754;28;11546;-75
2022/02/13 08:06:05;;;;;;;;;73.00;57.67;;;;;3.34;79.94;103379.03;5095348;28;11545;-76
2022/02/13 08:09:01;;;;;;;;;51.75;46.25;;;;;3.50;79.44;103376.88;5094240;28;11578;-75
2022/02/13 08:11:57;;;;;;;;;42.00;40.75;;;;;3.94;78.59;103381.47;5101802;28;11559;-77
2022/02/13 08:14:53;;;;;;;;;74.00;57.00;;;;;4.14;75.71;103390.38;5113874;28;12407;-75
2022/02/13 08:17:48;;;;;;;;;62.25;51.00;;;;;4.41;75.21;103390.16;5114726;28;8852;-74
2022/02/13 08:20:46;;;;;;;;;55.50;46.50;;;;;4.15;74.76;103386.59;5114294;28;11592;-76
2022/02/13 08:23:42;;;;;;;;;64.50;51.75;;;;;4.25;73.29;103382.50;5102983;28;11579;-76
2022/02/13 08:26:37;;;;;;;;;57.25;48.50;;;;;4.11;70.62;103385.34;5112646;28;11523;-75
2022/02/13 08:29:06;;;;;;;;;50.00;46.00;;;;;4.19;68.45;103386.97;5115635;28;11527;-75
2022/02/13 08:32:01;;;;;;;;;31.75;31.50;;;;;4.42;69.22;103392.69;5114628;28;11549;-75
2022/02/13 08:34:57;;;;;;;;;29.00;29.00;;;;;4.47;67.84;103392.00;5113554;28;11676;-76
2022/02/13 08:37:53;;;;;;;;;21.00;21.00;;;;;4.73;67.11;103382.69;5113485;28;11483;-76
2022/02/13 08:40:49;;;;;;;;;24.50;24.50;;;;;4.72;66.45;103381.03;5113904;28;11505;-76
2022/02/13 08:43:44;;;;;;;;;16.25;16.25;;;;;4.80;67.53;103390.84;5113377;28;11507;-75
2022/02/13 08:46:42;;;;;;;;;16.00;14.00;;;;;4.98;65.72;103385.38;5107140;28;11561;-76
2022/02/13 08:49:37;;;;;;;;;16.00;16.00;;;;;5.46;66.19;103387.38;5100678;28;11581;-78
2022/02/13 08:52:33;;;;;;;;;21.25;19.50;;;;;5.54;69.88;103396.13;5114018;28;11475;-77
2022/02/13 08:55:29;;;;;;;;;16.25;16.25;;;;;7.41;92.50;103390.00;5100665;28;11524;-78
2022/02/13 08:58:07;;;;;;;;;10.00;10.00;;;;;7.47;78.47;103390.94;5097676;28;11591;-77
2022/02/13 09:01:03;;;;;;;;;9.25;9.00;;;;;7.02;65.75;103390.81;5112511;28;11625;-75
2022/02/13 09:03:58;;;;;;;;;14.50;14.50;;;;;6.60;60.32;103393.72;5114035;28;11405;-77
2022/02/13 09:06:54;;;;;;;;;17.75;17.75;;;;;8.87;88.91;103387.34;5113776;28;11432;-76
2022/02/13 09:09:52;;;;;;;;;7.50;7.50;;;;;8.73;71.32;103388.78;5113883;28;11544;-76
2022/02/13 09:12:48;;;;;;;;;12.25;12.25;;;;;9.37;73.03;103380.03;5114114;28;11866;-77
2022/02/13 09:15:44;;;;;;;;;11.50;11.50;;;;;7.48;51.85;103396.22;5100081;28;11531;-77
2022/02/13 09:18:42;;;;;;;;;14.75;13.75;;;;;8.36;68.87;103374.72;5113761;28;11002;-76
2022/02/13 09:21:37;;;;;;;;;16.00;16.00;;;;;8.56;62.07;103388.81;5113744;28;11014;-76
2022/02/13 09:24:34;;;;;;;;;13.00;13.00;;;;;8.27;71.30;103376.16;5112750;28;11109;-77
2022/02/13 09:27:29;;;;;;;;;12.00;12.00;;;;;8.80;67.62;103369.31;5113550;28;11112;-76
2022/02/13 09:30:25;;;;;;;;;15.50;15.50;;;;;7.73;50.38;103382.09;5099800;28;11064;-76
2022/02/13 09:33:23;;;;;;;;;18.75;18.50;;;;;8.97;60.37;103361.84;5113550;28;11153;-76
2022/02/13 09:35:51;;;;;;;;;12.25;12.25;;;;;9.99;77.27;103338.97;5114772;28;11161;-76
2022/02/13 09:38:20;;;;;;;;;24.50;21.50;;;;;8.81;61.64;103357.16;5096610;28;11015;-77
2022/02/13 09:40:47;;;;;;;;;12.00;12.00;;;;;10.20;75.76;103351.03;5114462;28;11157;-77
2022/02/13 09:43:16;;;;;;;;;14.50;14.50;;;;;9.50;61.29;103364.97;5114379;28;10687;-77
2022/02/13 09:45:45;;;;;;;;;15.75;14.50;;;;;8.94;48.10;103367.84;5114544;28;10794;-76
2022/02/13 09:48:18;;;;;;;;;13.75;12.50;;;;;8.22;48.51;103357.63;5113497;28;10557;-76
2022/02/13 09:50:47;;;;;;;;;11.25;11.25;;;;;8.57;55.23;103357.38;5114332;28;10850;-77
2022/02/13 09:53:17;;;;;;;;;12.00;12.00;;;;;9.50;63.41;103332.66;5113053;28;10802;-76
2022/02/13 09:55:45;;;;;;;;;13.50;13.50;;;;;9.74;67.76;103325.75;5112852;28;10765;-77
2022/02/13 09:58:13;;;;;;;;;16.50;16.50;;;;;9.33;50.74;103346.53;5114294;28;11028;-76
2022/02/13 10:00:51;;;;;;;;;17.50;17.00;;;;;9.86;61.57;103331.09;5114068;28;10811;-76
2022/02/13 10:03:24;;;;;;;;;21.75;19.75;;;;;9.92;49.45;103337.50;5079393;28;11868;-76
2022/02/13 10:05:56;;;;;;;;;13.75;13.50;;;;;9.00;46.75;103338.41;5114069;28;10771;-76
2022/02/13 10:08:32;;;;;;;;;17.25;17.25;;;;;9.11;50.32;103327.22;5113985;28;10712;-76
2022/02/13 10:11:14;;;;;;;;;10.50;10.50;;;;;9.93;59.43;103317.06;5095913;28;10856;-76
2022/02/13 10:13:57;;;;;;;;;12.00;12.00;;;;;9.64;49.86;103319.25;5113946;28;10823;-76
2022/02/13 10:16:36;;;;;;;;;10.75;10.75;;;;;11.10;62.52;103309.53;5113975;28;10523;-77
2022/02/13 10:19:22;;;;;;;;;10.00;10.00;;;;;11.13;54.19;103317.31;5113957;28;10293;-77
2022/02/13 10:21:55;;;;;;;;;7.00;7.00;;;;;10.14;39.09;103307.84;5113999;28;10302;-76
2022/02/13 10:24:33;;;;;;;;;8.25;8.25;;;;;10.46;54.93;103293.16;5113743;28;10001;-77
2022/02/13 10:27:12;;;;;;;;;10.00;10.00;;;;;10.56;46.56;103299.56;5112679;28;10230;-76
2022/02/13 10:29:45;;;;;;;;;7.25;7.25;;;;;10.03;41.47;103295.84;5111264;28;10228;-77
2022/02/13 10:32:13;;;;;;;;;11.75;11.00;;;;;10.47;48.23;103286.53;5113941;28;10149;-76
2022/02/13 10:34:55;;;;;;;;;9.25;9.25;;;;;10.91;43.32;103294.53;5095626;28;10312;-78
2022/02/13 10:37:34;;;;;;;;;9.00;9.00;;;;;10.88;41.74;103295.03;5113798;28;10749;-77
2022/02/13 10:40:06;;;;;;;;;9.75;9.75;;;;;10.82;43.49;103296.97;5113952;28;9755;-77
2022/02/13 10:42:35;;;;;;;;;7.00;5.75;;;;;10.67;47.19;103288.59;5095880;28;10052;-78
2022/02/13 10:45:27;;;;;;;;;8.00;8.00;;;;;11.19;51.92;103291.28;5095102;28;10244;-77
2022/02/13 10:48:00;;;;;;;;;8.75;8.00;;;;;10.94;51.01;103288.44;5113545;28;10051;-78
2022/02/13 10:50:30;;;;;;;;;7.50;7.50;;;;;10.68;52.97;103280.00;5111117;28;10102;-77
2022/02/13 10:53:01;;;;;;;;;9.25;9.00;;;;;10.49;44.76;103281.53;5095439;28;9917;-77
2022/02/13 10:55:31;;;;;;;;;7.75;7.75;;;;;10.33;43.57;103291.69;5113258;28;10051;-76
2022/02/13 10:58:00;;;;;;;;;10.50;10.50;;;;;10.48;42.63;103279.88;5095718;28;9736;-76
2022/02/13 11:00:30;;;;;;;;;10.00;10.00;;;;;9.79;42.06;103277.94;5113325;28;10035;-76
2022/02/13 11:03:04;;;;;;;;;8.50;8.50;;;;;10.45;49.86;103272.13;5113661;28;10058;-76
2022/02/13 11:05:35;;;;;;;;;7.00;7.00;;;;;10.99;44.75;103269.06;5113495;28;10126;-76
2022/02/13 11:08:08;;;;;;;;;7.75;7.75;;;;;10.91;52.43;103259.34;5113355;28;9772;-76
2022/02/13 11:10:41;;;;;;;;;7.00;7.00;;;;;10.51;46.46;103258.06;5113921;28;10155;-76
2022/02/13 11:13:14;;;;;;;;;10.00;10.00;;;;;10.34;41.99;103253.78;5117072;28;9930;-76
2022/02/13 11:15:42;;;;;;;;;4.50;4.50;;;;;9.62;39.73;103250.44;5117327;28;10103;-76
2022/02/13 11:18:22;;;;;;;;;7.00;7.00;;;;;10.02;48.86;103246.34;5117320;28;10140;-75
2022/02/13 11:20:51;;;;;;;;;9.25;9.25;;;;;10.58;46.02;103241.19;5117008;28;10204;-76
2022/02/13 11:23:25;;;;;;;;;7.00;7.00;;;;;11.14;49.06;103233.13;5117133;28;10162;-76
2022/02/13 11:26:07;;;;;;;;;8.25;8.25;;;;;11.41;56.87;103232.88;5117123;28;9991;-76
2022/02/13 11:28:42;;;;;;;;;4.00;4.00;;;;;10.71;43.21;103234.34;5098841;28;9852;-76
2022/02/13 11:31:39;;;;;;;;;7.50;7.50;;;;;10.70;40.80;103244.56;5116776;28;9842;-76
2022/02/13 11:34:26;;;;;;;;;7.00;7.00;;;;;10.63;48.97;103230.16;5106785;28;10082;-76
2022/02/13 11:36:56;;;;;;;;;4.50;4.50;;;;;11.03;48.29;103221.16;5116975;28;9906;-76
2022/02/13 11:39:38;;;;;;;;;6.00;6.00;;;;;11.05;48.23;103229.22;5117425;28;9676;-76
2022/02/13 11:42:09;;;;;;;;;4.00;4.00;;;;;11.23;48.42;103225.09;5116816;28;10794;-76
2022/02/13 11:44:54;;;;;;;;;1.50;1.50;;;;;11.20;42.11;103220.94;5098782;28;9838;-76
2022/02/13 11:47:31;;;;;;;;;10.00;9.75;;;;;10.97;48.99;103222.28;5116831;28;9746;-76
2022/02/13 11:50:05;;;;;;;;;6.00;6.00;;;;;11.09;44.83;103213.72;5116452;28;9969;-76
2022/02/13 11:52:38;;;;;;;;;8.25;8.25;;;;;10.94;46.10;103208.94;5098716;28;9944;-76
2022/02/13 11:55:16;;;;;;;;;7.75;7.75;;;;;10.70;44.06;103211.38;5116587;28;9958;-76
2022/02/13 11:57:54;;;;;;;;;12.75;10.25;;;;;10.76;50.33;103215.81;5115627;28;9932;-79
2022/02/13 12:00:34;;;;;;;;;9.00;9.00;;;;;10.92;54.38;103207.56;5116118;28;10167;-79
2022/02/13 12:03:32;;;;;;;;;8.00;8.00;;;;;10.16;40.00;103217.13;5113761;28;10096;-78
2022/02/13 12:06:32;;;;;;;;;8.00;8.00;;;;;8.98;41.91;103211.69;5111300;28;10057;-78
2022/02/13 12:09:29;;;;;;;;;7.50;7.50;;;;;9.24;42.29;103196.22;5116114;28;10484;-78
2022/02/13 12:12:24;;;;;;;;;7.00;7.00;;;;;8.80;43.16;103193.53;5112360;28;10639;-77
2022/02/13 12:15:23;;;;;;;;;9.00;8.00;;;;;9.01;42.18;103193.75;5104740;28;10961;-78
2022/02/13 12:18:19;;;;;;;;;7.00;7.00;;;;;9.07;43.20;103190.78;5098684;28;10747;-78
2022/02/13 12:21:15;;;;;;;;;6.00;6.00;;;;;9.33;41.90;103191.03;5101583;28;10885;-78
2022/02/13 12:24:11;;;;;;;;;4.50;4.00;;;;;9.68;40.72;103190.53;5118293;28;11525;-79
2022/02/13 12:27:07;;;;;;;;;5.50;5.50;;;;;9.49;40.98;103187.31;5104904;28;10821;-79
2022/02/13 12:30:08;;;;;;;;;6.50;6.25;;;;;9.35;41.20;103189.66;5100349;28;10671;-79
2022/02/13 12:33:05;;;;;;;;;7.00;7.00;;;;;9.22;40.02;103189.28;5096340;28;10913;-78
2022/02/13 12:36:01;;;;;;;;;5.00;5.00;;;;;8.62;41.23;103189.19;5120186;28;11578;-78
2022/02/13 12:38:59;;;;;;;;;5.50;5.50;;;;;8.78;40.81;103186.59;5104840;28;10679;-77
2022/02/13 12:42:01;;;;;;;;;5.00;5.00;;;;;9.23;41.06;103177.97;5119190;28;10868;-78
2022/02/13 12:44:59;;;;;;;;;7.00;7.00;;;;;9.00;41.13;103176.38;5110662;28;10860;-77
2022/02/13 12:48:05;;;;;;;;;7.50;7.50;;;;;9.53;42.00;103190.41;5099119;28;10767;-78
2022/02/13 12:51:06;;;;;;;;;6.75;6.75;;;;;9.01;42.50;103188.25;5106501;28;10895;-78
2022/02/13 12:54:02;;;;;;;;;7.75;7.75;;;;;9.41;42.99;103177.59;5103224;27;10578;-79
2022/02/13 12:57:16;;;;;;;;;11.00;11.00;;;;;9.15;43.36;103173.75;5097516;28;10807;-78
2022/02/13 13:00:24;;;;;;;;;7.25;7.25;;;;;9.27;44.60;103172.75;5102975;28;10733;-79
2022/02/13 13:03:25;;;;;;;;;8.00;8.00;;;;;8.97;46.32;103170.50;5102113;28;10721;-80
2022/02/13 13:06:29;;;;;;;;;12.00;11.00;;;;;8.55;48.63;103169.22;5116316;28;10877;-79